Time;durP1;ratioP1;P1;durP2;ratioP2;P2;SDS_P1;SDS_P2;PMS_P1;PMS_P2;Temp;Humidity;BMP_temperature;BMP_pressure;BME280_temperature;BME280_humidity;BME280_pressure;Samples;Min_cycle;Max_cycle;Signal;HPM_P1;HPM_P2
2022/05/06 00:01:38;;;;;;;20.57;18.53;;;;;;;12.25;100.00;100892.66;5008036;28;20189;-50
2022/05/06 00:04:04;;;;;;;21.17;19.17;;;;;;;12.24;100.00;100899.59;5002576;28;20411;-50
2022/05/06 00:06:30;;;;;;;22.10;19.90;;;;;;;12.24;100.00;100886.59;5007667;28;20189;-50
2022/05/06 00:08:56;;;;;;;23.03;20.77;;;;;;;12.24;100.00;100884.00;5010227;28;20192;-50
2022/05/06 00:11:21;;;;;;;22.57;20.53;;;;;;;12.23;100.00;100892.66;5012928;28;20258;-50
2022/05/06 00:13:47;;;;;;;22.90;20.80;;;;;;;12.20;100.00;100883.16;5007176;28;20254;-50
2022/05/06 00:16:12;;;;;;;21.83;19.73;;;;;;;12.19;100.00;100888.34;5007323;28;20201;-50
2022/05/06 00:18:37;;;;;;;22.57;20.57;;;;;;;12.16;100.00;100884.06;5006732;28;20851;-52
2022/05/06 00:21:03;;;;;;;22.63;20.47;;;;;;;12.14;100.00;100882.31;4991237;28;20542;-50
2022/05/06 00:23:28;;;;;;;21.60;19.40;;;;;;;12.13;100.00;100878.88;5006303;28;20545;-52
2022/05/06 00:25:55;;;;;;;21.33;19.33;;;;;;;12.12;100.00;100887.53;5009938;28;20190;-50
2022/05/06 00:28:21;;;;;;;22.80;20.60;;;;;;;12.15;100.00;100886.63;5009284;28;20198;-50
2022/05/06 00:30:47;;;;;;;21.30;19.27;;;;;;;12.14;100.00;100885.78;5008243;28;20209;-50
2022/05/06 00:33:13;;;;;;;23.23;20.93;;;;;;;12.13;100.00;100880.59;5007052;28;20197;-50
2022/05/06 00:35:41;;;;;;;22.57;20.57;;;;;;;12.11;100.00;100885.81;4990231;28;20212;-50
2022/05/06 00:38:06;;;;;;;22.30;20.30;;;;;;;12.10;100.00;100878.03;5007041;28;20190;-50
2022/05/06 00:40:32;;;;;;;22.40;20.30;;;;;;;12.09;100.00;100879.75;5007848;28;20247;-52
2022/05/06 00:42:57;;;;;;;21.40;19.50;;;;;;;12.09;100.00;100881.50;5006839;28;20242;-50
2022/05/06 00:45:23;;;;;;;20.23;18.37;;;;;;;12.09;100.00;100884.09;5007381;28;20283;-49
2022/05/06 00:47:50;;;;;;;22.20;20.00;;;;;;;12.10;100.00;100884.06;5006994;28;20193;-49
2022/05/06 00:50:18;;;;;;;20.83;18.93;;;;;;;12.11;100.00;100878.03;5009468;28;20667;-51
2022/05/06 00:52:43;;;;;;;21.80;19.63;;;;;;;12.11;100.00;100879.75;5006590;28;20646;-49
2022/05/06 00:55:09;;;;;;;23.10;20.93;;;;;;;12.11;100.00;100880.63;5007361;28;20242;-50
2022/05/06 00:57:35;;;;;;;21.57;19.40;;;;;;;12.08;100.00;100875.44;5007483;28;20539;-49
2022/05/06 01:00:18;;;;;;;21.00;19.00;;;;;;;12.07;100.00;100878.06;5007212;28;20188;-50
2022/05/06 01:02:45;;;;;;;19.83;18.10;;;;;;;12.06;100.00;100884.13;5004759;28;20652;-50
2022/05/06 01:05:12;;;;;;;21.83;19.80;;;;;;;12.07;100.00;100878.91;5003905;28;20716;-52
2022/05/06 01:07:38;;;;;;;21.70;19.60;;;;;;;12.06;100.00;100871.13;5006861;28;20666;-50
2022/05/06 01:10:04;;;;;;;22.57;20.37;;;;;;;12.04;100.00;100877.19;5007698;28;20193;-50
2022/05/06 01:12:30;;;;;;;21.00;18.93;;;;;;;12.03;100.00;100878.06;5008121;28;20206;-51
2022/05/06 01:14:55;;;;;;;20.50;18.60;;;;;;;12.03;100.00;100877.19;5006253;28;20263;-50
2022/05/06 01:17:22;;;;;;;21.20;19.20;;;;;;;12.01;100.00;100871.16;5008035;28;20254;-51
2022/05/06 01:19:47;;;;;;;20.97;19.00;;;;;;;11.99;100.00;100868.56;5007515;28;20208;-51
2022/05/06 01:22:13;;;;;;;21.47;19.43;;;;;;;11.99;100.00;100876.34;5008175;28;20191;-51
2022/05/06 01:24:38;;;;;;;21.97;19.77;;;;;;;11.98;100.00;100873.75;5005003;28;20212;-52
2022/05/06 01:27:08;;;;;;;21.13;19.10;;;;;;;11.98;100.00;100871.16;5006019;28;20276;-51
2022/05/06 01:29:37;;;;;;;21.97;19.87;;;;;;;11.96;100.00;100872.88;5008326;28;20199;-51
2022/05/06 01:32:03;;;;;;;21.27;19.17;;;;;;;11.92;100.00;100866.84;5004418;28;20184;-52
2022/05/06 01:34:32;;;;;;;21.80;19.60;;;;;;;11.90;100.00;100871.19;5004602;28;20219;-51
2022/05/06 01:37:01;;;;;;;20.83;18.93;;;;;;;11.89;100.00;100878.09;5007337;28;20275;-51
2022/05/06 01:39:31;;;;;;;21.13;19.20;;;;;;;11.87;100.00;100876.38;5006667;28;20192;-51
2022/05/06 01:42:04;;;;;;;20.77;18.87;;;;;;;11.87;100.00;100878.97;5006856;28;20590;-51
2022/05/06 01:44:34;;;;;;;20.27;18.47;;;;;;;11.85;100.00;100871.22;5004350;28;20582;-52
2022/05/06 01:47:02;;;;;;;21.20;19.20;;;;;;;11.85;100.00;100873.81;5007093;28;20199;-51
2022/05/06 01:49:30;;;;;;;22.17;20.07;;;;;;;11.87;100.00;100866.00;5004940;28;20199;-51
2022/05/06 01:51:57;;;;;;;23.07;20.97;;;;;;;11.86;100.00;100874.66;5010093;28;20574;-51
2022/05/06 01:54:23;;;;;;;23.90;21.70;;;;;;;11.86;100.00;100877.25;4992343;28;20222;-51
2022/05/06 01:56:49;;;;;;;23.00;20.77;;;;;;;11.80;100.00;100874.72;5007214;28;20196;-51
2022/05/06 01:59:14;;;;;;;23.40;21.10;;;;;;;11.74;100.00;100873.84;5004931;28;20227;-51
2022/05/06 02:01:39;;;;;;;23.60;21.40;;;;;;;11.71;100.00;100868.69;5006066;28;20650;-51
2022/05/06 02:06:48;;;;;;;24.83;22.43;;;;;;;11.73;100.00;100866.94;4990902;28;20267;-50
2022/05/06 02:09:16;;;;;;;23.27;21.07;;;;;;;11.74;100.00;100870.38;5006617;28;20677;-51
2022/05/06 02:11:42;;;;;;;26.50;23.80;;;;;;;11.73;100.00;100872.13;5006067;28;20192;-50
2022/05/06 02:14:08;;;;;;;24.63;22.23;;;;;;;11.74;100.00;100870.38;5004882;28;20282;-51
2022/05/06 02:16:33;;;;;;;23.63;21.23;;;;;;;11.74;100.00;100870.38;5005271;28;20227;-51
2022/05/06 02:18:59;;;;;;;22.73;20.60;;;;;;;11.73;100.00;100866.06;5006003;28;20239;-51
2022/05/06 02:21:24;;;;;;;23.20;21.00;;;;;;;11.75;100.00;100877.28;5005081;28;20200;-51
2022/05/06 02:23:50;;;;;;;21.70;19.70;;;;;;;11.77;100.00;100869.53;5007397;28;20235;-51
2022/05/06 02:26:15;;;;;;;23.27;21.07;;;;;;;11.79;100.00;100862.59;5007219;28;20188;-50
2022/05/06 02:28:41;;;;;;;21.77;19.77;;;;;;;11.80;100.00;100872.97;5004874;28;20192;-51
2022/05/06 02:33:51;;;;;;;22.03;19.90;;;;;;;11.80;100.00;100870.38;5005684;28;20227;-51
2022/05/06 02:36:16;;;;;;;23.57;21.27;;;;;;;11.77;100.00;100867.78;5007915;28;20188;-51
2022/05/06 02:38:42;;;;;;;22.60;20.50;;;;;;;11.74;100.00;100871.25;5003876;28;20194;-50
2022/05/06 02:41:08;;;;;;;22.63;20.50;;;;;;;11.75;100.00;100877.28;5006086;28;20272;-50
2022/05/06 02:43:34;;;;;;;22.50;20.37;;;;;;;11.75;100.00;100872.09;5005467;28;20213;-50
2022/05/06 02:45:59;;;;;;;21.87;19.77;;;;;;;11.77;100.00;100877.31;4990627;28;20634;-50
2022/05/06 02:48:24;;;;;;;21.53;19.53;;;;;;;11.78;100.00;100873.84;5006426;28;20290;-50
2022/05/06 02:50:50;;;;;;;21.37;19.37;;;;;;;11.77;100.00;100872.13;5005369;28;20224;-50
2022/05/06 02:53:15;;;;;;;21.90;19.70;;;;;;;11.80;100.00;100877.31;5006107;28;20203;-50
2022/05/06 02:55:41;;;;;;;21.23;19.23;;;;;;;11.80;100.00;100880.75;5004533;28;20217;-50
2022/05/06 02:58:07;;;;;;;22.50;20.30;;;;;;;11.79;100.00;100873.81;5006306;28;20220;-51
2022/05/06 03:00:32;;;;;;;21.70;19.70;;;;;;;11.79;100.00;100876.41;5004291;28;20629;-50
2022/05/06 03:02:57;;;;;;;22.33;20.20;;;;;;;11.80;100.00;100874.72;5004438;28;20191;-50
2022/05/06 03:05:24;;;;;;;20.77;18.90;;;;;;;11.82;100.00;100886.78;5005648;28;20299;-50
2022/05/06 03:07:49;;;;;;;20.90;19.00;;;;;;;11.80;100.00;100880.75;5006186;28;20188;-50
2022/05/06 03:10:15;;;;;;;19.23;17.43;;;;;;;11.79;100.00;100876.41;5004222;28;20695;-50
2022/05/06 03:12:43;;;;;;;19.93;18.10;;;;;;;11.80;100.00;100879.91;5004238;28;20592;-50
2022/05/06 03:15:09;;;;;;;20.27;18.27;;;;;;;11.80;100.00;100878.16;5000137;28;20222;-50
2022/05/06 03:17:34;;;;;;;19.97;18.27;;;;;;;11.80;100.00;100869.53;5002552;28;20188;-50
2022/05/06 03:20:00;;;;;;;19.93;18.13;;;;;;;11.80;100.00;100878.16;5004601;28;20227;-50
2022/05/06 03:22:35;;;;;;;20.10;18.13;;;;;;;11.79;100.00;100860.88;5000858;28;20324;-50
2022/05/06 03:25:01;;;;;;;20.13;18.23;;;;;;;11.78;100.00;100872.09;5002852;28;20226;-50
2022/05/06 03:30:10;;;;;;;20.27;18.27;;;;;;;11.69;100.00;100865.22;5004561;28;20259;-50
2022/05/06 03:32:36;;;;;;;19.73;17.87;;;;;;;11.65;100.00;100867.84;5004822;28;20215;-50
2022/05/06 03:35:02;;;;;;;19.37;17.53;;;;;;;11.64;100.00;100863.53;5003980;28;20224;-50
2022/05/06 03:37:28;;;;;;;19.03;17.13;;;;;;;11.63;100.00;100862.69;5004216;28;20211;-50
2022/05/06 03:39:53;;;;;;;19.47;17.60;;;;;;;11.64;100.00;100866.13;5003038;28;20192;-50
2022/05/06 03:42:18;;;;;;;20.07;18.27;;;;;;;11.64;100.00;100860.94;5008629;28;20278;-50
2022/05/06 03:44:44;;;;;;;19.20;17.20;;;;;;;11.62;100.00;100860.06;4999163;28;20645;-50
2022/05/06 03:47:09;;;;;;;20.27;18.30;;;;;;;11.62;100.00;100857.47;5004364;28;20231;-50
2022/05/06 03:49:34;;;;;;;17.80;16.20;;;;;;;11.60;100.00;100862.69;5005781;28;20192;-50
2022/05/06 03:52:00;;;;;;;19.37;17.47;;;;;;;11.61;100.00;100867.00;5002804;28;20196;-50
2022/05/06 03:54:26;;;;;;;18.53;16.73;;;;;;;11.61;100.00;100866.13;5003379;28;20724;-50
2022/05/06 03:56:52;;;;;;;17.93;16.23;;;;;;;11.62;100.00;100867.84;5002657;28;20696;-50
2022/05/06 03:59:17;;;;;;;18.63;16.83;;;;;;;11.63;100.00;100873.03;5001486;28;20642;-50
2022/05/06 04:01:42;;;;;;;18.07;16.33;;;;;;;11.66;100.00;100879.94;5003388;28;20293;-50
2022/05/06 04:04:08;;;;;;;18.07;16.43;;;;;;;11.66;100.00;100875.59;5003523;28;20544;-50
2022/05/06 04:06:33;;;;;;;16.67;15.17;;;;;;;11.67;100.00;100879.91;5003113;28;20276;-50
2022/05/06 04:08:59;;;;;;;19.13;17.37;;;;;;;11.68;100.00;100880.78;5005887;28;20210;-50
2022/05/06 04:11:25;;;;;;;18.63;16.83;;;;;;;11.69;100.00;100882.53;5007205;28;20195;-50
2022/05/06 04:13:50;;;;;;;18.40;16.70;;;;;;;11.68;100.00;100876.47;4988199;28;20263;-50
2022/05/06 04:16:16;;;;;;;18.73;17.03;;;;;;;11.69;100.00;100885.13;5003751;28;20201;-50
2022/05/06 04:18:41;;;;;;;18.10;16.37;;;;;;;11.70;100.00;100890.28;5007764;28;20212;-50
2022/05/06 04:23:51;;;;;;;18.60;16.80;;;;;;;11.71;100.00;100885.97;5008598;28;20585;-50
2022/05/06 04:26:17;;;;;;;17.73;16.17;;;;;;;11.70;100.00;100898.06;5007764;28;20196;-50
2022/05/06 04:28:44;;;;;;;16.90;15.30;;;;;;;11.71;100.00;100893.75;5007111;28;20974;-50
2022/05/06 04:31:09;;;;;;;18.53;16.73;;;;;;;11.72;100.00;100895.47;5009272;28;20751;-50
2022/05/06 04:33:37;;;;;;;18.13;16.30;;;;;;;11.72;100.00;100901.50;5005071;28;20208;-50
2022/05/06 04:36:04;;;;;;;18.30;16.60;;;;;;;11.74;100.00;100898.91;5007775;28;20299;-50
2022/05/06 04:38:29;;;;;;;18.10;16.50;;;;;;;11.74;100.00;100901.50;5011351;28;20275;-50
2022/05/06 04:41:02;;;;;;;18.27;16.57;;;;;;;11.73;100.00;100911.03;5011496;28;20350;-50
2022/05/06 04:43:29;;;;;;;19.37;17.67;;;;;;;11.73;100.00;100908.44;5010295;28;20199;-50
2022/05/06 04:45:55;;;;;;;19.53;17.53;;;;;;;11.73;100.00;100912.72;5009440;28;20189;-50
2022/05/06 04:48:21;;;;;;;19.33;17.47;;;;;;;11.76;100.00;100906.69;5010872;28;20600;-51
2022/05/06 04:50:47;;;;;;;19.20;17.47;;;;;;;11.76;100.00;100907.53;5008821;28;20215;-51
2022/05/06 04:53:14;;;;;;;18.63;16.93;;;;;;;11.74;100.00;100915.34;5004804;28;20197;-49
2022/05/06 04:55:48;;;;;;;19.37;17.67;;;;;;;11.74;100.00;100923.13;4991437;28;20525;-49
2022/05/06 04:58:16;;;;;;;20.33;18.43;;;;;;;11.72;100.00;100919.66;5005159;28;20280;-50
2022/05/06 05:00:42;;;;;;;18.60;17.00;;;;;;;11.73;100.00;100928.28;5004684;28;20187;-50
2022/05/06 05:03:07;;;;;;;19.80;18.00;;;;;;;11.73;100.00;100936.06;5002077;28;20193;-50
2022/05/06 05:05:33;;;;;;;21.00;19.03;;;;;;;11.69;100.00;100927.44;5004094;28;20208;-50
2022/05/06 05:07:58;;;;;;;20.93;18.83;;;;;;;11.68;100.00;100938.69;5007762;28;20194;-50
2022/05/06 05:10:24;;;;;;;20.27;18.17;;;;;;;11.68;100.00;100933.50;5004376;28;20254;-49
2022/05/06 05:12:50;;;;;;;20.93;18.93;;;;;;;11.68;100.00;100936.09;5008977;28;20200;-49
2022/05/06 05:15:16;;;;;;;19.37;17.57;;;;;;;11.68;100.00;100932.66;5005202;28;20229;-50
2022/05/06 05:17:45;;;;;;;19.07;17.17;;;;;;;11.70;100.00;100933.50;5005586;28;20189;-50
2022/05/06 05:20:14;;;;;;;20.10;18.20;;;;;;;11.71;100.00;100932.66;5006617;28;20591;-49
2022/05/06 05:22:40;;;;;;;19.00;17.30;;;;;;;11.72;100.00;100932.63;5002100;28;20277;-49
2022/05/06 05:25:06;;;;;;;20.83;18.70;;;;;;;11.74;100.00;100940.38;5006010;28;20233;-50
2022/05/06 05:27:33;;;;;;;20.67;18.87;;;;;;;11.76;100.00;100935.22;5007331;28;21081;-50
2022/05/06 05:29:59;;;;;;;19.57;17.77;;;;;;;11.78;100.00;100938.69;5009128;28;20199;-51
2022/05/06 05:32:25;;;;;;;21.13;19.13;;;;;;;11.82;100.00;100946.44;5003462;28;20555;-51
2022/05/06 05:34:50;;;;;;;19.70;17.90;;;;;;;11.89;100.00;100939.50;5006957;28;20720;-51
2022/05/06 05:37:16;;;;;;;19.37;17.60;;;;;;;11.95;100.00;100948.97;5009669;28;20199;-51
2022/05/06 05:39:41;;;;;;;18.57;16.87;;;;;;;11.98;100.00;100936.00;5004469;28;20184;-50
2022/05/06 05:42:07;;;;;;;20.10;18.23;;;;;;;12.01;100.00;100934.28;5005400;28;20185;-50
2022/05/06 05:50:05;;;;;;;18.80;16.83;;;;;;;12.24;100.00;100943.69;5007075;28;20264;-50
2022/05/06 05:52:31;;;;;;;19.13;17.23;;;;;;;12.32;100.00;100943.66;5007707;28;20198;-50
2022/05/06 05:54:56;;;;;;;19.00;17.20;;;;;;;12.40;100.00;100947.06;5010373;28;20216;-50
2022/05/06 05:57:21;;;;;;;19.47;17.77;;;;;;;12.47;100.00;100947.88;5006309;28;20197;-51
2022/05/06 05:59:47;;;;;;;21.80;19.80;;;;;;;12.52;100.00;100940.94;5009689;28;20191;-49
2022/05/06 06:02:13;;;;;;;22.67;20.47;;;;;;;12.55;100.00;100942.63;5010002;28;20222;-49
2022/05/06 06:04:39;;;;;;;23.03;20.83;;;;;;;12.58;100.00;100945.22;5007311;28;20916;-51
2022/05/06 06:07:05;;;;;;;22.47;20.27;;;;;;;12.61;100.00;100945.22;5006504;28;20221;-50
2022/05/06 06:09:32;;;;;;;21.33;19.33;;;;;;;12.66;100.00;100948.59;5003460;28;20654;-49
2022/05/06 06:11:57;;;;;;;22.70;20.50;;;;;;;12.64;100.00;100945.16;4994019;28;20190;-49
2022/05/06 06:14:23;;;;;;;22.20;19.20;;;;;;;12.63;100.00;100946.03;5008705;28;20667;-50
2022/05/06 06:16:50;;;;;;;20.77;18.87;;;;;;;12.71;100.00;100951.16;5000367;28;20322;-50
2022/05/06 06:19:16;;;;;;;21.00;18.83;;;;;;;12.72;100.00;100943.38;5010711;28;20285;-51
2022/05/06 06:21:41;;;;;;;20.37;18.47;;;;;;;12.71;100.00;100946.84;5005227;28;20265;-49
2022/05/06 06:24:07;;;;;;;18.80;17.07;;;;;;;12.70;100.00;100944.28;5000432;28;20298;-51
2022/05/06 06:26:32;;;;;;;18.57;16.63;;;;;;;12.78;100.00;100950.25;5003208;28;20216;-50
2022/05/06 06:28:58;;;;;;;18.57;16.77;;;;;;;12.78;100.00;100958.06;5007644;28;20183;-49
2022/05/06 06:31:24;;;;;;;17.83;16.03;;;;;;;12.77;100.00;100958.94;4989832;28;20567;-49
2022/05/06 06:33:49;;;;;;;17.67;15.87;;;;;;;12.77;100.00;100954.63;5002073;28;20235;-49
2022/05/06 06:36:15;;;;;;;16.50;14.80;;;;;;;12.77;100.00;100952.00;5004634;28;20300;-49
2022/05/06 06:38:40;;;;;;;16.30;14.60;;;;;;;12.77;100.00;100962.41;5008989;28;20770;-49
2022/05/06 06:41:06;;;;;;;15.37;13.97;;;;;;;12.78;100.00;100961.50;5006742;28;20219;-50
2022/05/06 06:43:31;;;;;;;14.20;12.83;;;;;;;12.82;100.00;100959.75;5000065;28;20198;-49
2022/05/06 06:45:57;;;;;;;14.77;13.47;;;;;;;12.85;100.00;100967.53;5004079;28;20556;-49
2022/05/06 06:48:25;;;;;;;15.13;13.63;;;;;;;12.88;100.00;100967.50;5001692;28;20395;-49
2022/05/06 06:50:52;;;;;;;13.93;12.40;;;;;;;12.88;100.00;100971.84;4999407;28;20273;-49
2022/05/06 06:53:18;;;;;;;14.47;13.07;;;;;;;12.92;100.00;100974.41;5002502;28;20199;-49
2022/05/06 06:55:43;;;;;;;14.20;12.70;;;;;;;12.89;100.00;100976.16;5003693;28;20246;-49
2022/05/06 06:58:09;;;;;;;15.47;13.13;;;;;;;12.87;100.00;100970.13;5003859;28;20455;-49
2022/05/06 07:00:34;;;;;;;14.20;12.80;;;;;;;12.86;100.00;100965.78;5001641;28;20265;-49
2022/05/06 07:03:00;;;;;;;15.03;13.50;;;;;;;12.86;100.00;100968.38;5006216;28;20229;-49
2022/05/06 07:05:25;;;;;;;13.30;11.90;;;;;;;12.90;100.00;100967.50;4998615;28;20565;-50
2022/05/06 07:13:19;;;;;;;13.27;11.93;;;;;;;13.09;100.00;100974.25;4998704;28;20586;-50
2022/05/06 07:15:44;;;;;;;13.27;11.77;;;;;;;13.15;100.00;100975.09;5002077;28;20211;-50
2022/05/06 07:18:09;;;;;;;13.33;12.10;;;;;;;13.21;100.00;100980.25;5000659;28;20810;-50
2022/05/06 07:20:35;;;;;;;12.70;11.60;;;;;;;13.21;100.00;100977.66;4999206;28;20188;-49
2022/05/06 07:23:00;;;;;;;13.27;12.07;;;;;;;13.21;100.00;100975.03;5001827;28;20616;-49
2022/05/06 07:25:26;;;;;;;12.27;11.27;;;;;;;13.27;100.00;100972.38;4998905;28;20253;-49
2022/05/06 07:27:52;;;;;;;12.87;11.77;;;;;;;13.35;100.00;100972.31;5006093;28;20290;-50
2022/05/06 07:30:18;;;;;;;12.27;11.13;;;;;;;13.41;100.00;100969.69;5001998;28;20733;-49
2022/05/06 07:32:43;;;;;;;12.07;10.87;;;;;;;13.47;100.00;100979.16;5003687;28;20191;-49
2022/05/06 07:35:09;;;;;;;13.93;11.80;;;;;;;13.49;100.00;100977.41;5010916;28;20465;-49
2022/05/06 07:37:34;;;;;;;11.63;10.60;;;;;;;13.44;100.00;100980.06;5007100;28;20734;-49
2022/05/06 07:40:01;;;;;;;13.00;11.70;;;;;;;13.45;100.00;100976.59;5002490;28;20194;-49
2022/05/06 07:42:28;;;;;;;12.07;10.53;;;;;;;13.39;100.00;100977.44;5005075;28;20190;-50
2022/05/06 07:44:54;;;;;;;12.57;11.00;;;;;;;13.41;100.00;100974.88;5003827;28;20208;-49
2022/05/06 07:47:20;;;;;;;11.90;10.70;;;;;;;13.39;100.00;100972.25;5001378;28;20642;-50
2022/05/06 07:49:45;;;;;;;11.87;10.67;;;;;;;13.44;100.00;100980.06;5000977;28;21431;-49
2022/05/06 07:52:10;;;;;;;12.93;10.63;;;;;;;13.44;100.00;100977.47;5005523;28;20659;-50
2022/05/06 07:54:36;;;;;;;11.77;10.57;;;;;;;13.47;100.00;100984.38;5001566;28;20710;-50
2022/05/06 07:57:01;;;;;;;11.07;10.07;;;;;;;13.51;100.00;100991.25;4997782;28;20679;-49
2022/05/06 07:59:27;;;;;;;10.93;9.93;;;;;;;13.54;100.00;100988.59;5003446;28;20202;-49
2022/05/06 08:04:37;;;;;;;11.80;10.03;;;;;;;13.64;100.00;100981.56;5000021;28;20588;-49
2022/05/06 08:07:07;;;;;;;12.27;9.63;;;;;;;13.74;100.00;100980.63;5004357;28;20182;-49
2022/05/06 08:09:34;;;;;;;11.60;10.33;;;;;;;13.79;100.00;100981.41;5006071;28;20190;-49
2022/05/06 08:11:59;;;;;;;10.53;9.37;;;;;;;13.89;100.00;100989.13;5009628;28;20217;-49
2022/05/06 08:14:25;;;;;;;10.87;9.77;;;;;;;14.03;100.00;100987.22;5003778;28;20591;-50
2022/05/06 08:16:50;;;;;;;10.53;9.57;;;;;;;13.97;100.00;100992.50;5004138;28;20221;-49
2022/05/06 08:19:17;;;;;;;10.10;9.10;;;;;;;14.09;100.00;100986.28;5007383;28;20207;-49
2022/05/06 08:21:43;;;;;;;10.40;9.40;;;;;;;14.30;100.00;100995.56;5004168;28;20189;-49
2022/05/06 08:24:09;;;;;;;10.23;9.33;;;;;;;14.41;100.00;100995.44;5007456;28;20516;-50
2022/05/06 08:26:34;;;;;;;9.20;8.40;;;;;;;14.50;100.00;100994.44;5004966;28;20503;-49
2022/05/06 08:29:00;;;;;;;9.77;8.87;;;;;;;14.61;100.00;100993.38;5006893;28;20339;-49
2022/05/06 08:31:27;;;;;;;9.73;8.93;;;;;;;14.69;100.00;101000.28;5008373;28;20554;-49
2022/05/06 08:33:53;;;;;;;9.40;8.57;;;;;;;14.86;100.00;100995.69;4987319;28;20693;-50
2022/05/06 08:36:19;;;;;;;11.53;9.63;;;;;;;15.01;100.00;100999.78;5006512;28;20295;-49
2022/05/06 08:38:45;;;;;;;10.20;9.30;;;;;;;15.09;100.00;101002.25;5008861;28;20206;-49
2022/05/06 08:41:10;;;;;;;9.83;8.93;;;;;;;15.22;100.00;101003.78;5007849;28;20188;-49
2022/05/06 08:43:37;;;;;;;10.10;9.13;;;;;;;15.32;100.00;101001.03;5005397;28;20203;-49
2022/05/06 08:51:33;;;;;;;10.87;9.43;;;;;;;15.90;100.00;100995.66;5008203;28;20245;-49
2022/05/06 08:53:59;;;;;;;10.40;9.10;;;;;;;15.72;98.87;101002.06;4996479;28;20600;-49
2022/05/06 08:56:25;;;;;;;9.70;8.70;;;;;;;15.70;100.00;100997.72;5004969;28;20253;-49
2022/05/06 08:58:54;;;;;;;11.70;8.63;;;;;;;15.96;100.00;101003.34;5005124;28;20212;-50
2022/05/06 09:01:21;;;;;;;10.17;8.63;;;;;;;16.38;99.16;100992.91;5010501;28;20188;-50
2022/05/06 09:03:48;;;;;;;9.93;8.23;;;;;;;16.44;98.54;100995.38;5007769;28;20216;-49
2022/05/06 09:06:24;;;;;;;10.30;8.90;;;;;;;16.62;98.13;100998.47;4999842;28;20185;-49
2022/05/06 09:08:51;;;;;;;9.53;8.57;;;;;;;16.86;96.99;100996.19;5006157;28;20188;-50
2022/05/06 09:12:40;;;;;;;9.53;8.60;;;;;;;16.92;95.75;100993.41;5006775;28;20184;-49
2022/05/06 09:14:04;;;;;;;9.43;8.13;;;;;;;17.01;96.07;100995.84;5004450;28;20255;-49
2022/05/06 09:16:41;;;;;;;9.70;8.80;;;;;;;16.92;95.87;100999.53;5004717;28;20273;-49
2022/05/06 09:19:20;;;;;;;10.83;8.87;;;;;;;16.61;96.34;101004.59;5004118;28;20188;-49
2022/05/06 09:22:14;;;;;;;9.57;8.57;;;;;;;17.06;96.19;101000.97;5004306;28;20193;-49
2022/05/06 09:24:42;;;;;;;9.53;8.53;;;;;;;17.08;95.17;101004.41;5002058;28;20213;-49
2022/05/06 09:27:12;;;;;;;9.23;8.20;;;;;;;17.19;94.97;101004.13;4999775;28;20178;-50
2022/05/06 09:29:42;;;;;;;10.17;8.70;;;;;;;17.03;94.95;101006.25;5000874;28;20279;-49
2022/05/06 09:32:27;;;;;;;10.53;8.33;;;;;;;17.23;94.83;101000.53;5006931;28;20241;-49
2022/05/06 09:34:57;;;;;;;8.70;7.90;;;;;;;17.46;94.34;100999.94;5011272;28;20213;-49
2022/05/06 09:37:33;;;;;;;8.67;7.83;;;;;;;17.70;93.25;101001.94;5006576;28;20350;-49
2022/05/06 09:40:06;;;;;;;9.27;8.33;;;;;;;17.51;92.61;100994.56;5000742;28;20271;-49
2022/05/06 09:42:32;;;;;;;8.87;7.97;;;;;;;17.71;91.44;100993.19;4999532;28;20588;-49
2022/05/06 09:44:59;;;;;;;9.77;7.87;;;;;;;17.59;92.42;100990.00;5005419;28;20211;-49
2022/05/06 09:47:25;;;;;;;8.93;8.10;;;;;;;18.04;92.16;100993.19;4999587;28;20234;-50
2022/05/06 09:49:52;;;;;;;8.77;7.73;;;;;;;17.95;91.13;100987.25;5003169;28;20595;-49
2022/05/06 09:52:17;;;;;;;8.30;7.60;;;;;;;18.08;90.40;100990.41;5002865;28;20184;-49
2022/05/06 09:54:45;;;;;;;8.80;8.00;;;;;;;17.90;90.04;100996.16;5000584;28;20308;-49
2022/05/06 09:57:11;;;;;;;8.60;7.70;;;;;;;17.91;89.36;100988.28;5004014;28;20202;-49
2022/05/06 09:59:37;;;;;;;8.07;7.37;;;;;;;18.00;88.52;100988.94;5004697;28;20188;-49
2022/05/06 10:02:07;;;;;;;8.90;8.00;;;;;;;18.23;88.55;100989.09;5001327;28;20191;-49
2022/05/06 10:04:35;;;;;;;9.73;7.00;;;;;;;18.36;89.60;100989.59;4990718;28;20206;-49
2022/05/06 10:07:02;;;;;;;8.03;7.27;;;;;;;18.55;89.81;100989.88;5003311;28;20190;-49
2022/05/06 10:09:34;;;;;;;8.17;6.70;;;;;;;18.79;88.54;100997.91;5004411;28;20191;-49
2022/05/06 10:12:02;;;;;;;8.53;7.60;;;;;;;18.80;85.69;100989.13;5002931;28;20184;-49
2022/05/06 10:14:28;;;;;;;8.70;7.50;;;;;;;18.89;86.43;100987.97;5000834;28;20228;-49
2022/05/06 10:16:54;;;;;;;8.70;6.83;;;;;;;19.06;85.26;100987.44;5002116;28;20549;-49
2022/05/06 10:19:28;;;;;;;8.73;6.43;;;;;;;18.89;84.11;100985.34;5005836;28;20191;-49
2022/05/06 10:21:55;;;;;;;6.90;6.17;;;;;;;18.67;84.92;100995.66;5002880;28;20566;-49
2022/05/06 10:24:21;;;;;;;7.07;5.93;;;;;;;18.93;84.48;100988.72;5000965;28;20573;-49
2022/05/06 10:26:51;;;;;;;6.00;5.50;;;;;;;19.00;84.72;100993.75;5005512;28;20188;-49
2022/05/06 10:32:25;;;;;;;7.30;6.60;;;;;;;19.38;83.23;100987.25;4997211;28;20272;-49
2022/05/06 10:35:12;;;;;;;6.90;6.30;;;;;;;19.07;80.26;100983.91;5005866;28;20219;-49
2022/05/06 10:37:44;;;;;;;5.90;5.33;;;;;;;19.19;81.23;100978.25;5003041;28;20266;-49
2022/05/06 10:40:25;;;;;;;6.40;5.20;;;;;;;19.37;81.02;100986.41;5006180;28;20184;-49
2022/05/06 10:42:53;;;;;;;6.73;4.90;;;;;;;19.13;81.95;100977.59;5001510;28;20914;-49
2022/05/06 10:45:22;;;;;;;7.03;5.23;;;;;;;18.96;80.11;100983.41;4996153;28;20215;-49
2022/05/06 10:47:48;;;;;;;6.63;5.70;;;;;;;18.98;77.96;100982.44;5000433;28;20658;-49
2022/05/06 10:50:23;;;;;;;7.00;5.33;;;;;;;18.58;80.07;100983.72;5000722;28;20203;-49
2022/05/06 10:52:49;;;;;;;7.57;5.33;;;;;;;18.24;79.43;100969.00;4979732;28;20272;-49
2022/05/06 10:55:16;;;;;;;7.00;5.10;;;;;;;18.71;81.16;100961.44;5006412;28;20312;-49
2022/05/06 10:57:46;;;;;;;4.90;4.40;;;;;;;18.96;80.22;100962.44;5000105;28;20224;-49
2022/05/06 11:00:12;;;;;;;6.50;4.30;;;;;;;19.15;80.04;100963.50;4994697;28;20240;-49
2022/05/06 11:02:38;;;;;;;5.20;3.90;;;;;;;19.42;78.62;100959.97;5004093;28;20191;-49
2022/05/06 11:05:06;;;;;;;5.47;3.47;;;;;;;19.75;76.81;100960.53;4997871;28;20213;-49
2022/05/06 11:07:36;;;;;;;6.40;3.87;;;;;;;19.43;74.89;100970.44;4990740;28;20195;-49
2022/05/06 11:10:10;;;;;;;5.27;3.50;;;;;;;19.10;72.78;100962.81;4999839;28;20216;-49
2022/05/06 11:12:44;;;;;;;3.77;3.03;;;;;;;19.20;73.23;100960.75;4996989;28;20202;-49
2022/05/06 11:15:14;;;;;;;4.47;3.57;;;;;;;19.39;75.19;100955.72;4997437;28;20306;-49
2022/05/06 11:17:42;;;;;;;3.40;3.10;;;;;;;19.44;74.52;100963.41;4995954;28;20267;-49
2022/05/06 11:20:19;;;;;;;4.63;3.37;;;;;;;19.26;70.81;100957.91;4998539;28;20200;-49
2022/05/06 11:23:03;;;;;;;5.93;3.07;;;;;;;19.12;71.04;100953.16;5003380;28;20250;-49
2022/05/06 11:25:33;;;;;;;4.77;3.07;;;;;;;19.12;70.86;100954.88;5002660;28;20235;-49
2022/05/06 11:28:00;;;;;;;3.40;3.00;;;;;;;19.20;71.13;100947.63;4993450;28;20192;-49
2022/05/06 11:30:27;;;;;;;3.30;2.63;;;;;;;19.28;71.93;100947.38;5002897;28;20184;-49
2022/05/06 11:32:58;;;;;;;3.57;2.57;;;;;;;19.51;70.72;100949.19;4988251;28;20191;-49
2022/05/06 11:35:42;;;;;;;4.63;2.43;;;;;;;19.47;70.55;100943.16;4998733;28;20858;-49
2022/05/06 11:38:07;;;;;;;3.73;2.67;;;;;;;19.56;70.71;100941.13;4998033;28;20195;-49
2022/05/06 11:40:36;;;;;;;3.13;2.43;;;;;;;19.59;68.51;100935.75;4997544;28;20196;-49